Map

Track Data

SID SEASON NUMBER BASIN SUBBASIN NAME ISO_TIME NATURE LAT LON WMO_WIND WMO_PRES WMO_AGENCY TRACK_TYPE DIST2LAND LANDFALL IFLAG USA_AGENCY USA_ATCF_ID USA_LAT USA_LON USA_RECORD USA_STATUS USA_WIND USA_PRES USA_SSHS USA_R34_NE USA_R34_SE USA_R34_SW USA_R34_NW USA_R50_NE USA_R50_SE USA_R50_SW USA_R50_NW USA_R64_NE USA_R64_SE USA_R64_SW USA_R64_NW USA_POCI USA_ROCI USA_RMW USA_EYE TOKYO_LAT TOKYO_LON TOKYO_GRADE TOKYO_WIND TOKYO_PRES TOKYO_R50_DIR TOKYO_R50_LONG TOKYO_R50_SHORT TOKYO_R30_DIR TOKYO_R30_LONG TOKYO_R30_SHORT TOKYO_LAND CMA_LAT CMA_LON CMA_CAT CMA_WIND CMA_PRES HKO_LAT HKO_LON HKO_CAT HKO_WIND HKO_PRES NEWDELHI_LAT NEWDELHI_LON NEWDELHI_GRADE NEWDELHI_WIND NEWDELHI_PRES NEWDELHI_CI NEWDELHI_DP NEWDELHI_POCI REUNION_LAT REUNION_LON REUNION_TYPE REUNION_WIND REUNION_PRES REUNION_TNUM REUNION_CI REUNION_RMW REUNION_R34_NE REUNION_R34_SE REUNION_R34_SW REUNION_R34_NW REUNION_R50_NE REUNION_R50_SE REUNION_R50_SW REUNION_R50_NW REUNION_R64_NE REUNION_R64_SE REUNION_R64_SW REUNION_R64_NW BOM_LAT BOM_LON BOM_TYPE BOM_WIND BOM_PRES BOM_TNUM BOM_CI BOM_RMW BOM_R34_NE BOM_R34_SE BOM_R34_SW BOM_R34_NW BOM_R50_NE BOM_R50_SE BOM_R50_SW BOM_R50_NW BOM_R64_NE BOM_R64_SE BOM_R64_SW BOM_R64_NW BOM_ROCI BOM_POCI BOM_EYE BOM_POS_METHOD BOM_PRES_METHOD NADI_LAT NADI_LON NADI_CAT NADI_WIND NADI_PRES WELLINGTON_LAT WELLINGTON_LON WELLINGTON_WIND WELLINGTON_PRES DS824_LAT DS824_LON DS824_STAGE DS824_WIND DS824_PRES TD9636_LAT TD9636_LON TD9636_STAGE TD9636_WIND TD9636_PRES TD9635_LAT TD9635_LON TD9635_WIND TD9635_PRES TD9635_ROCI NEUMANN_LAT NEUMANN_LON NEUMANN_CLASS NEUMANN_WIND NEUMANN_PRES MLC_LAT MLC_LON MLC_CLASS MLC_WIND MLC_PRES USA_GUST BOM_GUST BOM_GUST_PER REUNION_GUST REUNION_GUST_PER USA_SEAHGT USA_SEARAD_NE USA_SEARAD_SE USA_SEARAD_SW USA_SEARAD_NW STORM_SPEED STORM_DIR
1866305S09433 1867 28 SI MM NOT_NAMED 1866-10-31 18:00:00 NR -8.70000 72.6000 main 1855 1855 __________O___ -1 -8.70000 72.6000 7 5 199
1866305S09433 1867 28 SI MM NOT_NAMED 1866-10-31 21:00:00 NR -8.93592 72.5172 main 1880 1880 __________P___ -1 -8.93592 72.5172 7 5 200
1866305S09433 1867 28 SI MM NOT_NAMED 1866-11-01 00:00:00 NR -9.17746 72.4275 main 1915 1915 __________P___ -1 -9.17746 72.4275 7 5 201
1866305S09433 1867 28 SI MM NOT_NAMED 1866-11-01 03:00:00 NR -9.43028 72.3240 main 1940 1940 __________P___ -1 -9.43028 72.3240 7 6 203
1866305S09433 1867 28 SI MM NOT_NAMED 1866-11-01 06:00:00 NR -9.70000 72.2000 main 1943 1913 __________O___ -1 -9.70000 72.2000 7 6 206
1866305S09433 1867 28 SI MM NOT_NAMED 1866-11-01 09:00:00 NR -9.99131 72.0523 main 1913 1875 __________P___ -1 -9.99131 72.0523 7 7 207
1866305S09433 1867 28 SI MM NOT_NAMED 1866-11-01 12:00:00 NR -10.3051 71.8926 main 1875 1838 __________P___ -1 -10.3051 71.8926 7 7 206
1866305S09433 1867 28 SI MM NOT_NAMED 1866-11-01 15:00:00 NR -10.6413 71.7366 main 1838 1802 __________P___ -1 -10.6413 71.7366 7 8 202
1866305S09433 1867 28 SI MM NOT_NAMED 1866-11-01 18:00:00 NR -11.0000 71.6000 main 1802 1767 __________O___ -1 -11.0000 71.6000 7 8 198
1866305S09433 1867 28 SI MM NOT_NAMED 1866-11-01 21:00:00 NR -11.3865 71.4912 main 1767 1733 __________P___ -1 -11.3865 71.4912 7 8 193
1866305S09433 1867 28 SI MM NOT_NAMED 1866-11-02 00:00:00 NR -11.7925 71.4050 main 1733 1699 __________P___ -1 -11.7925 71.4050 7 8 190
1866305S09433 1867 28 SI MM NOT_NAMED 1866-11-02 03:00:00 NR -12.2022 71.3413 main 1699 1675 __________P___ -1 -12.2022 71.3413 7 8 188
1866305S09433 1867 28 SI MM NOT_NAMED 1866-11-02 06:00:00 NR -12.6000 71.3000 main 1675 1657 __________O___ -1 -12.6000 71.3000 7 8 185
1866305S09433 1867 28 SI MM NOT_NAMED 1866-11-02 09:00:00 NR -12.9643 71.2702 main 1652 1635 __________P___ -1 -12.9643 71.2702 7 7 184
1866305S09433 1867 28 SI MM NOT_NAMED 1866-11-02 12:00:00 NR -13.3150 71.2625 main 1635 1619 __________P___ -1 -13.3150 71.2625 7 7 0
1866305S09433 1867 28 SI MM NOT_NAMED 1866-11-02 15:00:00 NR -13.6581 71.2734 main 1613 1597 __________P___ -1 -13.6581 71.2734 7 7 176
1866305S09433 1867 28 SI MM NOT_NAMED 1866-11-02 18:00:00 NR -14.0000 71.3000 main 1597 1581 __________O___ -1 -14.0000 71.3000 7 7 174
1866305S09433 1867 28 SI MM NOT_NAMED 1866-11-02 21:00:00 NR -14.3456 71.3390 main 1581 1571 __________P___ -1 -14.3456 71.3390 7 7 172
1866305S09433 1867 28 SI MM NOT_NAMED 1866-11-03 00:00:00 NR -14.6950 71.3874 main 1571 1557 __________P___ -1 -14.6950 71.3874 7 7 172
1866305S09433 1867 28 SI MM NOT_NAMED 1866-11-03 03:00:00 NR -15.0469 71.4420 main 1557 1549 __________P___ -1 -15.0469 71.4420 7 7 171
1866305S09433 1867 28 SI MM NOT_NAMED 1866-11-03 06:00:00 NR -15.4000 71.5000 main 1549 __________O___ -1 -15.4000 71.5000 7 7 170

About IBTrACS Database

This database is a web-friendly format of International Best Track Archive for Climate Stewardship (IBTrACS), a global best track data archive curated by NOAA dating back to 1842.

Updated: 2021-10-25